sensor_id;sensor_type;location;lat;lon;timestamp;P1;durP1;ratioP1;P2;durP2;ratioP2
51981;SDS011;37998;53.416;6.730;2022-09-24T00:03:40;42.25;;;34.40;;
51981;SDS011;37998;53.416;6.730;2022-09-24T00:06:07;46.63;;;36.15;;
51981;SDS011;37998;53.416;6.730;2022-09-24T00:08:34;45.42;;;36.58;;
51981;SDS011;37998;53.416;6.730;2022-09-24T00:11:00;45.38;;;36.42;;
51981;SDS011;37998;53.416;6.730;2022-09-24T00:13:28;45.78;;;37.80;;
51981;SDS011;37998;53.416;6.730;2022-09-24T00:15:55;44.30;;;35.22;;
51981;SDS011;37998;53.416;6.730;2022-09-24T00:18:25;43.22;;;35.90;;
51981;SDS011;37998;53.416;6.730;2022-09-24T00:20:50;46.13;;;37.42;;
51981;SDS011;37998;53.416;6.730;2022-09-24T00:23:16;48.40;;;36.75;;
51981;SDS011;37998;53.416;6.730;2022-09-24T00:25:42;43.85;;;36.15;;
51981;SDS011;37998;53.416;6.730;2022-09-24T00:28:28;41.00;;;36.15;;
51981;SDS011;37998;53.416;6.730;2022-09-24T00:30:53;42.63;;;36.72;;
51981;SDS011;37998;53.416;6.730;2022-09-24T00:33:22;41.15;;;34.72;;
51981;SDS011;37998;53.416;6.730;2022-09-24T00:35:48;43.42;;;37.13;;
51981;SDS011;37998;53.416;6.730;2022-09-24T00:38:15;47.72;;;36.85;;
51981;SDS011;37998;53.416;6.730;2022-09-24T00:40:41;45.53;;;35.72;;
51981;SDS011;37998;53.416;6.730;2022-09-24T00:43:22;47.85;;;38.42;;
51981;SDS011;37998;53.416;6.730;2022-09-24T00:48:16;43.97;;;36.33;;
51981;SDS011;37998;53.416;6.730;2022-09-24T00:50:43;51.65;;;38.70;;
51981;SDS011;37998;53.416;6.730;2022-09-24T00:53:09;41.25;;;32.95;;
51981;SDS011;37998;53.416;6.730;2022-09-24T00:55:39;44.00;;;37.70;;
51981;SDS011;37998;53.416;6.730;2022-09-24T00:58:08;46.40;;;37.08;;
51981;SDS011;37998;53.416;6.730;2022-09-24T01:00:38;46.10;;;36.83;;
51981;SDS011;37998;53.416;6.730;2022-09-24T01:03:07;49.03;;;39.00;;
51981;SDS011;37998;53.416;6.730;2022-09-24T01:05:35;44.50;;;38.10;;
51981;SDS011;37998;53.416;6.730;2022-09-24T01:08:02;51.88;;;40.97;;
51981;SDS011;37998;53.416;6.730;2022-09-24T01:10:34;47.80;;;40.67;;
51981;SDS011;37998;53.416;6.730;2022-09-24T01:16:11;49.67;;;40.22;;
51981;SDS011;37998;53.416;6.730;2022-09-24T01:19:01;51.33;;;39.50;;
51981;SDS011;37998;53.416;6.730;2022-09-24T01:21:55;44.75;;;39.45;;
51981;SDS011;37998;53.416;6.730;2022-09-24T01:29:50;48.40;;;39.63;;
51981;SDS011;37998;53.416;6.730;2022-09-24T01:33:16;57.78;;;41.95;;
51981;SDS011;37998;53.416;6.730;2022-09-24T01:37:57;49.50;;;41.03;;
51981;SDS011;37998;53.416;6.730;2022-09-24T01:40:29;54.63;;;41.08;;
51981;SDS011;37998;53.416;6.730;2022-09-24T01:42:57;54.83;;;42.42;;
51981;SDS011;37998;53.416;6.730;2022-09-24T01:45:24;55.92;;;44.25;;
51981;SDS011;37998;53.416;6.730;2022-09-24T01:47:56;51.33;;;40.53;;
51981;SDS011;37998;53.416;6.730;2022-09-24T01:50:24;48.25;;;38.25;;
51981;SDS011;37998;53.416;6.730;2022-09-24T01:55:29;45.58;;;39.80;;
51981;SDS011;37998;53.416;6.730;2022-09-24T01:58:06;52.97;;;41.05;;
51981;SDS011;37998;53.416;6.730;2022-09-24T02:00:39;50.78;;;41.17;;
51981;SDS011;37998;53.416;6.730;2022-09-24T02:03:18;52.85;;;41.67;;
51981;SDS011;37998;53.416;6.730;2022-09-24T02:05:54;59.28;;;44.90;;
51981;SDS011;37998;53.416;6.730;2022-09-24T02:08:49;50.38;;;41.35;;
51981;SDS011;37998;53.416;6.730;2022-09-24T02:11:14;51.92;;;41.60;;
51981;SDS011;37998;53.416;6.730;2022-09-24T02:13:48;46.45;;;37.33;;
51981;SDS011;37998;53.416;6.730;2022-09-24T02:16:20;48.95;;;40.35;;
51981;SDS011;37998;53.416;6.730;2022-09-24T02:18:50;49.83;;;39.83;;
51981;SDS011;37998;53.416;6.730;2022-09-24T02:21:19;48.03;;;38.75;;
51981;SDS011;37998;53.416;6.730;2022-09-24T02:23:53;48.30;;;38.47;;
51981;SDS011;37998;53.416;6.730;2022-09-24T02:26:25;46.22;;;37.28;;
51981;SDS011;37998;53.416;6.730;2022-09-24T02:28:51;43.50;;;33.58;;
51981;SDS011;37998;53.416;6.730;2022-09-24T02:31:18;44.25;;;37.63;;
51981;SDS011;37998;53.416;6.730;2022-09-24T02:33:49;51.35;;;35.40;;
51981;SDS011;37998;53.416;6.730;2022-09-24T02:36:34;41.25;;;27.77;;
51981;SDS011;37998;53.416;6.730;2022-09-24T02:39:00;29.77;;;22.85;;
51981;SDS011;37998;53.416;6.730;2022-09-24T02:41:27;27.75;;;20.55;;
51981;SDS011;37998;53.416;6.730;2022-09-24T02:43:54;22.80;;;13.52;;
51981;SDS011;37998;53.416;6.730;2022-09-24T02:46:19;19.73;;;13.23;;
51981;SDS011;37998;53.416;6.730;2022-09-24T02:48:45;23.55;;;10.68;;
51981;SDS011;37998;53.416;6.730;2022-09-24T02:51:11;12.30;;;3.55;;
51981;SDS011;37998;53.416;6.730;2022-09-24T02:53:36;13.15;;;2.40;;
51981;SDS011;37998;53.416;6.730;2022-09-24T02:56:02;10.85;;;2.25;;
51981;SDS011;37998;53.416;6.730;2022-09-24T02:58:28;10.88;;;2.30;;
51981;SDS011;37998;53.416;6.730;2022-09-24T03:00:55;12.82;;;2.00;;
51981;SDS011;37998;53.416;6.730;2022-09-24T03:03:21;13.30;;;2.20;;
51981;SDS011;37998;53.416;6.730;2022-09-24T03:05:48;7.78;;;1.90;;
51981;SDS011;37998;53.416;6.730;2022-09-24T03:08:17;9.02;;;2.25;;
51981;SDS011;37998;53.416;6.730;2022-09-24T03:10:44;9.60;;;2.25;;
51981;SDS011;37998;53.416;6.730;2022-09-24T03:13:10;10.70;;;2.20;;
51981;SDS011;37998;53.416;6.730;2022-09-24T03:15:36;13.10;;;2.10;;
51981;SDS011;37998;53.416;6.730;2022-09-24T03:18:02;8.90;;;2.10;;
51981;SDS011;37998;53.416;6.730;2022-09-24T03:20:28;10.60;;;2.13;;
51981;SDS011;37998;53.416;6.730;2022-09-24T03:22:54;10.55;;;2.15;;
51981;SDS011;37998;53.416;6.730;2022-09-24T03:25:19;11.30;;;2.42;;
51981;SDS011;37998;53.416;6.730;2022-09-24T03:27:45;8.77;;;2.50;;
51981;SDS011;37998;53.416;6.730;2022-09-24T03:30:11;14.77;;;2.85;;
51981;SDS011;37998;53.416;6.730;2022-09-24T03:32:56;10.70;;;2.58;;
51981;SDS011;37998;53.416;6.730;2022-09-24T03:35:22;13.82;;;3.00;;
51981;SDS011;37998;53.416;6.730;2022-09-24T03:37:47;19.65;;;3.35;;
51981;SDS011;37998;53.416;6.730;2022-09-24T03:40:13;13.43;;;2.92;;
51981;SDS011;37998;53.416;6.730;2022-09-24T03:42:38;13.93;;;2.85;;
51981;SDS011;37998;53.416;6.730;2022-09-24T03:45:04;18.15;;;3.03;;
51981;SDS011;37998;53.416;6.730;2022-09-24T03:47:31;13.18;;;3.03;;
51981;SDS011;37998;53.416;6.730;2022-09-24T03:49:57;13.32;;;3.15;;
51981;SDS011;37998;53.416;6.730;2022-09-24T03:52:22;18.50;;;3.33;;
51981;SDS011;37998;53.416;6.730;2022-09-24T03:54:48;11.82;;;3.80;;
51981;SDS011;37998;53.416;6.730;2022-09-24T03:57:14;14.25;;;3.22;;
51981;SDS011;37998;53.416;6.730;2022-09-24T03:59:41;15.13;;;3.45;;
51981;SDS011;37998;53.416;6.730;2022-09-24T04:02:07;17.20;;;3.33;;
51981;SDS011;37998;53.416;6.730;2022-09-24T04:04:33;13.63;;;3.03;;
51981;SDS011;37998;53.416;6.730;2022-09-24T04:06:59;10.68;;;2.88;;
51981;SDS011;37998;53.416;6.730;2022-09-24T04:09:25;14.55;;;3.72;;
51981;SDS011;37998;53.416;6.730;2022-09-24T04:11:51;14.02;;;3.22;;
51981;SDS011;37998;53.416;6.730;2022-09-24T04:14:17;13.10;;;3.33;;
51981;SDS011;37998;53.416;6.730;2022-09-24T04:16:44;18.73;;;3.50;;
51981;SDS011;37998;53.416;6.730;2022-09-24T04:19:10;13.57;;;2.67;;
51981;SDS011;37998;53.416;6.730;2022-09-24T04:21:37;14.55;;;3.05;;
51981;SDS011;37998;53.416;6.730;2022-09-24T04:24:03;16.40;;;3.22;;
51981;SDS011;37998;53.416;6.730;2022-09-24T04:26:29;20.33;;;2.85;;
51981;SDS011;37998;53.416;6.730;2022-09-24T04:28:55;18.05;;;3.17;;
51981;SDS011;37998;53.416;6.730;2022-09-24T04:31:23;7.47;;;2.35;;
51981;SDS011;37998;53.416;6.730;2022-09-24T04:33:51;11.20;;;2.97;;
51981;SDS011;37998;53.416;6.730;2022-09-24T04:36:17;13.43;;;2.58;;
51981;SDS011;37998;53.416;6.730;2022-09-24T04:38:43;13.50;;;3.08;;
51981;SDS011;37998;53.416;6.730;2022-09-24T04:41:10;13.40;;;2.28;;
51981;SDS011;37998;53.416;6.730;2022-09-24T04:43:37;10.82;;;2.67;;
51981;SDS011;37998;53.416;6.730;2022-09-24T04:46:03;12.68;;;2.58;;
51981;SDS011;37998;53.416;6.730;2022-09-24T04:48:29;12.75;;;2.40;;
51981;SDS011;37998;53.416;6.730;2022-09-24T04:50:56;11.70;;;2.08;;
51981;SDS011;37998;53.416;6.730;2022-09-24T04:53:22;15.63;;;2.70;;
51981;SDS011;37998;53.416;6.730;2022-09-24T04:55:48;12.40;;;2.50;;
51981;SDS011;37998;53.416;6.730;2022-09-24T04:58:14;15.27;;;2.67;;
51981;SDS011;37998;53.416;6.730;2022-09-24T05:00:40;17.73;;;2.65;;
51981;SDS011;37998;53.416;6.730;2022-09-24T05:03:07;14.15;;;2.40;;
51981;SDS011;37998;53.416;6.730;2022-09-24T05:05:33;14.63;;;2.55;;
51981;SDS011;37998;53.416;6.730;2022-09-24T05:08:00;9.40;;;2.20;;
51981;SDS011;37998;53.416;6.730;2022-09-24T05:10:26;10.57;;;2.00;;
51981;SDS011;37998;53.416;6.730;2022-09-24T05:12:53;15.38;;;2.72;;
51981;SDS011;37998;53.416;6.730;2022-09-24T05:15:20;11.48;;;2.70;;
51981;SDS011;37998;53.416;6.730;2022-09-24T05:17:45;9.80;;;2.20;;
51981;SDS011;37998;53.416;6.730;2022-09-24T05:20:11;12.55;;;2.78;;
51981;SDS011;37998;53.416;6.730;2022-09-24T05:22:45;11.52;;;2.42;;
51981;SDS011;37998;53.416;6.730;2022-09-24T05:25:12;11.70;;;2.42;;
51981;SDS011;37998;53.416;6.730;2022-09-24T05:27:42;12.45;;;2.42;;
51981;SDS011;37998;53.416;6.730;2022-09-24T05:30:13;8.35;;;2.90;;
51981;SDS011;37998;53.416;6.730;2022-09-24T05:32:39;11.30;;;2.47;;
51981;SDS011;37998;53.416;6.730;2022-09-24T05:35:05;9.00;;;2.00;;
51981;SDS011;37998;53.416;6.730;2022-09-24T05:37:34;13.38;;;2.67;;
51981;SDS011;37998;53.416;6.730;2022-09-24T05:40:01;15.43;;;3.20;;
51981;SDS011;37998;53.416;6.730;2022-09-24T05:42:48;9.32;;;2.20;;
51981;SDS011;37998;53.416;6.730;2022-09-24T05:45:15;12.13;;;2.58;;
51981;SDS011;37998;53.416;6.730;2022-09-24T05:47:42;15.00;;;3.40;;
51981;SDS011;37998;53.416;6.730;2022-09-24T05:50:09;11.60;;;2.40;;
51981;SDS011;37998;53.416;6.730;2022-09-24T05:52:35;10.80;;;2.25;;
51981;SDS011;37998;53.416;6.730;2022-09-24T05:55:02;11.38;;;2.40;;
51981;SDS011;37998;53.416;6.730;2022-09-24T05:57:28;16.90;;;2.38;;
51981;SDS011;37998;53.416;6.730;2022-09-24T05:59:53;13.13;;;2.58;;
51981;SDS011;37998;53.416;6.730;2022-09-24T06:02:19;12.50;;;2.85;;
51981;SDS011;37998;53.416;6.730;2022-09-24T06:04:45;10.07;;;2.42;;
51981;SDS011;37998;53.416;6.730;2022-09-24T06:07:10;11.85;;;2.80;;
51981;SDS011;37998;53.416;6.730;2022-09-24T06:09:36;8.43;;;1.80;;
51981;SDS011;37998;53.416;6.730;2022-09-24T06:12:02;10.20;;;2.55;;
51981;SDS011;37998;53.416;6.730;2022-09-24T06:14:27;12.02;;;2.70;;
51981;SDS011;37998;53.416;6.730;2022-09-24T06:16:53;7.40;;;2.35;;
51981;SDS011;37998;53.416;6.730;2022-09-24T06:19:18;10.23;;;2.00;;
51981;SDS011;37998;53.416;6.730;2022-09-24T06:21:44;9.50;;;1.80;;
51981;SDS011;37998;53.416;6.730;2022-09-24T06:24:10;7.70;;;2.10;;
51981;SDS011;37998;53.416;6.730;2022-09-24T06:26:36;8.57;;;1.80;;
51981;SDS011;37998;53.416;6.730;2022-09-24T06:29:02;9.93;;;2.15;;
51981;SDS011;37998;53.416;6.730;2022-09-24T06:31:27;4.75;;;1.98;;
51981;SDS011;37998;53.416;6.730;2022-09-24T06:33:53;8.90;;;2.08;;
51981;SDS011;37998;53.416;6.730;2022-09-24T06:36:19;6.15;;;2.13;;
51981;SDS011;37998;53.416;6.730;2022-09-24T06:38:49;10.63;;;2.47;;
51981;SDS011;37998;53.416;6.730;2022-09-24T06:41:15;10.38;;;2.63;;
51981;SDS011;37998;53.416;6.730;2022-09-24T06:43:41;9.65;;;2.38;;
51981;SDS011;37998;53.416;6.730;2022-09-24T06:46:06;12.80;;;2.33;;
51981;SDS011;37998;53.416;6.730;2022-09-24T06:48:32;7.35;;;2.60;;
51981;SDS011;37998;53.416;6.730;2022-09-24T06:50:58;8.82;;;2.22;;
51981;SDS011;37998;53.416;6.730;2022-09-24T06:53:24;11.98;;;2.38;;
51981;SDS011;37998;53.416;6.730;2022-09-24T06:55:49;6.80;;;2.47;;
51981;SDS011;37998;53.416;6.730;2022-09-24T06:58:19;12.40;;;3.08;;
51981;SDS011;37998;53.416;6.730;2022-09-24T07:00:55;9.88;;;2.53;;
51981;SDS011;37998;53.416;6.730;2022-09-24T07:03:22;11.23;;;2.92;;
51981;SDS011;37998;53.416;6.730;2022-09-24T07:05:49;9.32;;;3.00;;
51981;SDS011;37998;53.416;6.730;2022-09-24T07:08:15;14.88;;;3.15;;
51981;SDS011;37998;53.416;6.730;2022-09-24T07:10:42;11.13;;;2.33;;
51981;SDS011;37998;53.416;6.730;2022-09-24T07:13:10;10.57;;;2.70;;
51981;SDS011;37998;53.416;6.730;2022-09-24T07:15:37;16.48;;;2.60;;
51981;SDS011;37998;53.416;6.730;2022-09-24T07:18:03;8.82;;;2.50;;
51981;SDS011;37998;53.416;6.730;2022-09-24T07:20:29;10.32;;;2.28;;
51981;SDS011;37998;53.416;6.730;2022-09-24T07:22:55;13.15;;;2.90;;
51981;SDS011;37998;53.416;6.730;2022-09-24T07:25:21;11.07;;;2.72;;
51981;SDS011;37998;53.416;6.730;2022-09-24T07:27:46;18.73;;;3.28;;
51981;SDS011;37998;53.416;6.730;2022-09-24T07:30:12;16.48;;;3.17;;
51981;SDS011;37998;53.416;6.730;2022-09-24T07:32:38;11.13;;;2.97;;
51981;SDS011;37998;53.416;6.730;2022-09-24T07:35:04;15.85;;;3.00;;
51981;SDS011;37998;53.416;6.730;2022-09-24T07:37:30;12.40;;;2.83;;
51981;SDS011;37998;53.416;6.730;2022-09-24T07:39:57;11.77;;;2.85;;
51981;SDS011;37998;53.416;6.730;2022-09-24T07:42:23;15.52;;;3.80;;
51981;SDS011;37998;53.416;6.730;2022-09-24T07:44:50;12.75;;;2.83;;
51981;SDS011;37998;53.416;6.730;2022-09-24T07:47:16;11.52;;;2.58;;
51981;SDS011;37998;53.416;6.730;2022-09-24T07:49:42;15.43;;;2.92;;
51981;SDS011;37998;53.416;6.730;2022-09-24T07:52:08;14.00;;;2.72;;
51981;SDS011;37998;53.416;6.730;2022-09-24T07:54:35;10.90;;;2.90;;
51981;SDS011;37998;53.416;6.730;2022-09-24T07:57:00;10.88;;;2.70;;
51981;SDS011;37998;53.416;6.730;2022-09-24T07:59:27;12.13;;;2.88;;
51981;SDS011;37998;53.416;6.730;2022-09-24T08:01:53;12.38;;;2.55;;
51981;SDS011;37998;53.416;6.730;2022-09-24T08:04:19;17.42;;;3.10;;
51981;SDS011;37998;53.416;6.730;2022-09-24T08:06:44;14.30;;;2.72;;
51981;SDS011;37998;53.416;6.730;2022-09-24T08:09:10;13.93;;;3.25;;
51981;SDS011;37998;53.416;6.730;2022-09-24T08:11:36;11.80;;;2.42;;
51981;SDS011;37998;53.416;6.730;2022-09-24T08:14:02;15.70;;;2.60;;
51981;SDS011;37998;53.416;6.730;2022-09-24T08:16:28;11.77;;;2.70;;
51981;SDS011;37998;53.416;6.730;2022-09-24T08:18:53;12.95;;;2.65;;
51981;SDS011;37998;53.416;6.730;2022-09-24T08:21:19;11.93;;;2.40;;
51981;SDS011;37998;53.416;6.730;2022-09-24T08:23:45;8.02;;;2.20;;
51981;SDS011;37998;53.416;6.730;2022-09-24T08:26:12;10.85;;;2.10;;
51981;SDS011;37998;53.416;6.730;2022-09-24T08:28:38;9.18;;;2.28;;
51981;SDS011;37998;53.416;6.730;2022-09-24T08:31:06;10.55;;;2.58;;
51981;SDS011;37998;53.416;6.730;2022-09-24T08:33:35;9.85;;;2.58;;
51981;SDS011;37998;53.416;6.730;2022-09-24T08:36:02;17.65;;;2.45;;
51981;SDS011;37998;53.416;6.730;2022-09-24T08:38:30;10.45;;;2.38;;
51981;SDS011;37998;53.416;6.730;2022-09-24T08:46:35;7.65;;;2.20;;
51981;SDS011;37998;53.416;6.730;2022-09-24T08:49:29;9.43;;;2.28;;
51981;SDS011;37998;53.416;6.730;2022-09-24T08:54:57;8.48;;;1.90;;
51981;SDS011;37998;53.416;6.730;2022-09-24T08:57:28;8.05;;;2.40;;
51981;SDS011;37998;53.416;6.730;2022-09-24T09:00:02;12.57;;;2.75;;
51981;SDS011;37998;53.416;6.730;2022-09-24T09:10:57;15.70;;;3.05;;
51981;SDS011;37998;53.416;6.730;2022-09-24T09:13:29;13.90;;;2.75;;
51981;SDS011;37998;53.416;6.730;2022-09-24T09:16:02;11.23;;;2.17;;
51981;SDS011;37998;53.416;6.730;2022-09-24T09:21:17;8.32;;;2.17;;
51981;SDS011;37998;53.416;6.730;2022-09-24T09:26:18;10.65;;;3.28;;
51981;SDS011;37998;53.416;6.730;2022-09-24T09:28:51;9.07;;;2.92;;
51981;SDS011;37998;53.416;6.730;2022-09-24T09:37:12;7.90;;;1.85;;
51981;SDS011;37998;53.416;6.730;2022-09-24T09:42:39;11.07;;;2.22;;
51981;SDS011;37998;53.416;6.730;2022-09-24T09:45:29;6.90;;;1.48;;
51981;SDS011;37998;53.416;6.730;2022-09-24T09:47:58;5.95;;;1.75;;
51981;SDS011;37998;53.416;6.730;2022-09-24T09:50:37;4.32;;;1.48;;
51981;SDS011;37998;53.416;6.730;2022-09-24T09:53:04;8.30;;;1.85;;
51981;SDS011;37998;53.416;6.730;2022-09-24T09:55:31;6.57;;;1.50;;
51981;SDS011;37998;53.416;6.730;2022-09-24T10:00:34;7.45;;;1.80;;
51981;SDS011;37998;53.416;6.730;2022-09-24T10:03:00;3.30;;;1.40;;
51981;SDS011;37998;53.416;6.730;2022-09-24T10:05:28;6.70;;;1.88;;
51981;SDS011;37998;53.416;6.730;2022-09-24T10:07:54;10.15;;;2.47;;
51981;SDS011;37998;53.416;6.730;2022-09-24T10:10:24;4.38;;;1.45;;
51981;SDS011;37998;53.416;6.730;2022-09-24T10:12:52;4.25;;;1.70;;
51981;SDS011;37998;53.416;6.730;2022-09-24T10:15:29;6.60;;;1.52;;
51981;SDS011;37998;53.416;6.730;2022-09-24T10:17:55;8.35;;;1.48;;
51981;SDS011;37998;53.416;6.730;2022-09-24T10:20:24;7.68;;;1.50;;
51981;SDS011;37998;53.416;6.730;2022-09-24T10:22:54;6.50;;;1.67;;
51981;SDS011;37998;53.416;6.730;2022-09-24T10:25:31;5.97;;;1.48;;
51981;SDS011;37998;53.416;6.730;2022-09-24T10:28:09;3.78;;;1.50;;
51981;SDS011;37998;53.416;6.730;2022-09-24T10:31:05;8.73;;;1.73;;
51981;SDS011;37998;53.416;6.730;2022-09-24T10:33:41;8.00;;;1.70;;
51981;SDS011;37998;53.416;6.730;2022-09-24T10:36:18;8.63;;;1.90;;
51981;SDS011;37998;53.416;6.730;2022-09-24T10:38:48;6.85;;;1.88;;
51981;SDS011;37998;53.416;6.730;2022-09-24T10:41:45;6.00;;;1.65;;
51981;SDS011;37998;53.416;6.730;2022-09-24T10:44:12;9.45;;;1.85;;
51981;SDS011;37998;53.416;6.730;2022-09-24T10:57:44;8.80;;;1.83;;
51981;SDS011;37998;53.416;6.730;2022-09-24T11:00:28;9.82;;;2.15;;
51981;SDS011;37998;53.416;6.730;2022-09-24T11:05:36;10.70;;;2.40;;
51981;SDS011;37998;53.416;6.730;2022-09-24T11:08:14;7.47;;;1.85;;
51981;SDS011;37998;53.416;6.730;2022-09-24T11:11:05;7.40;;;1.95;;
51981;SDS011;37998;53.416;6.730;2022-09-24T11:22:16;7.60;;;2.22;;
51981;SDS011;37998;53.416;6.730;2022-09-24T11:43:54;7.13;;;1.73;;
51981;SDS011;37998;53.416;6.730;2022-09-24T11:46:41;6.13;;;1.58;;
51981;SDS011;37998;53.416;6.730;2022-09-24T11:49:28;9.07;;;1.77;;
51981;SDS011;37998;53.416;6.730;2022-09-24T11:54:58;7.28;;;1.63;;
51981;SDS011;37998;53.416;6.730;2022-09-24T11:57:40;11.27;;;2.17;;
51981;SDS011;37998;53.416;6.730;2022-09-24T12:00:11;7.22;;;1.85;;
51981;SDS011;37998;53.416;6.730;2022-09-24T12:02:55;5.15;;;1.83;;
51981;SDS011;37998;53.416;6.730;2022-09-24T12:05:40;4.05;;;1.80;;
51981;SDS011;37998;53.416;6.730;2022-09-24T12:08:11;5.47;;;1.17;;
51981;SDS011;37998;53.416;6.730;2022-09-24T12:10:54;3.75;;;1.10;;
51981;SDS011;37998;53.416;6.730;2022-09-24T12:13:39;10.15;;;1.75;;
51981;SDS011;37998;53.416;6.730;2022-09-24T12:16:14;5.28;;;1.50;;
51981;SDS011;37998;53.416;6.730;2022-09-24T12:18:54;5.68;;;1.35;;
51981;SDS011;37998;53.416;6.730;2022-09-24T12:21:41;4.90;;;1.65;;
51981;SDS011;37998;53.416;6.730;2022-09-24T12:27:03;2.85;;;1.20;;
51981;SDS011;37998;53.416;6.730;2022-09-24T12:32:44;6.80;;;1.42;;
51981;SDS011;37998;53.416;6.730;2022-09-24T12:38:14;7.10;;;1.75;;
51981;SDS011;37998;53.416;6.730;2022-09-24T12:43:44;10.60;;;1.98;;
51981;SDS011;37998;53.416;6.730;2022-09-24T12:46:51;6.45;;;1.70;;
51981;SDS011;37998;53.416;6.730;2022-09-24T12:49:29;11.30;;;2.17;;
51981;SDS011;37998;53.416;6.730;2022-09-24T12:52:00;11.98;;;2.00;;
51981;SDS011;37998;53.416;6.730;2022-09-24T12:54:32;10.23;;;2.15;;
51981;SDS011;37998;53.416;6.730;2022-09-24T12:57:06;12.05;;;3.35;;
51981;SDS011;37998;53.416;6.730;2022-09-24T13:02:23;10.32;;;2.55;;
51981;SDS011;37998;53.416;6.730;2022-09-24T13:09:54;7.00;;;1.92;;
51981;SDS011;37998;53.416;6.730;2022-09-24T13:12:21;11.50;;;2.28;;
51981;SDS011;37998;53.416;6.730;2022-09-24T13:14:54;4.85;;;1.67;;
51981;SDS011;37998;53.416;6.730;2022-09-24T13:17:27;7.45;;;2.15;;
51981;SDS011;37998;53.416;6.730;2022-09-24T13:20:04;10.63;;;2.35;;
51981;SDS011;37998;53.416;6.730;2022-09-24T13:22:34;8.88;;;2.10;;
51981;SDS011;37998;53.416;6.730;2022-09-24T13:27:34;9.05;;;1.90;;
51981;SDS011;37998;53.416;6.730;2022-09-24T13:32:48;4.75;;;1.70;;
51981;SDS011;37998;53.416;6.730;2022-09-24T13:35:38;10.85;;;2.05;;
51981;SDS011;37998;53.416;6.730;2022-09-24T13:38:20;10.45;;;2.25;;
51981;SDS011;37998;53.416;6.730;2022-09-24T13:40:56;16.95;;;2.88;;
51981;SDS011;37998;53.416;6.730;2022-09-24T13:44:04;7.43;;;1.65;;
51981;SDS011;37998;53.416;6.730;2022-09-24T13:46:55;7.10;;;1.73;;
51981;SDS011;37998;53.416;6.730;2022-09-24T13:49:41;7.32;;;1.60;;
51981;SDS011;37998;53.416;6.730;2022-09-24T13:52:22;8.35;;;1.67;;
51981;SDS011;37998;53.416;6.730;2022-09-24T13:54:51;9.00;;;1.65;;
51981;SDS011;37998;53.416;6.730;2022-09-24T13:57:24;7.45;;;1.35;;
51981;SDS011;37998;53.416;6.730;2022-09-24T14:02:40;9.48;;;2.58;;
51981;SDS011;37998;53.416;6.730;2022-09-24T14:05:13;9.43;;;1.90;;
51981;SDS011;37998;53.416;6.730;2022-09-24T14:07:41;8.50;;;2.00;;
51981;SDS011;37998;53.416;6.730;2022-09-24T14:10:13;9.52;;;2.38;;
51981;SDS011;37998;53.416;6.730;2022-09-24T14:12:39;9.55;;;2.05;;
51981;SDS011;37998;53.416;6.730;2022-09-24T14:15:11;9.52;;;2.50;;
51981;SDS011;37998;53.416;6.730;2022-09-24T14:17:40;8.35;;;2.40;;
51981;SDS011;37998;53.416;6.730;2022-09-24T14:20:05;4.78;;;1.45;;
51981;SDS011;37998;53.416;6.730;2022-09-24T14:22:38;4.65;;;1.70;;
51981;SDS011;37998;53.416;6.730;2022-09-24T14:25:15;5.28;;;2.00;;
51981;SDS011;37998;53.416;6.730;2022-09-24T14:27:46;6.03;;;1.52;;
51981;SDS011;37998;53.416;6.730;2022-09-24T14:30:21;9.02;;;2.00;;
51981;SDS011;37998;53.416;6.730;2022-09-24T14:32:58;6.78;;;1.40;;
51981;SDS011;37998;53.416;6.730;2022-09-24T14:35:30;10.43;;;2.60;;
51981;SDS011;37998;53.416;6.730;2022-09-24T14:38:10;12.52;;;2.00;;
51981;SDS011;37998;53.416;6.730;2022-09-24T14:40:44;8.60;;;1.98;;
51981;SDS011;37998;53.416;6.730;2022-09-24T14:48:33;5.53;;;1.73;;
51981;SDS011;37998;53.416;6.730;2022-09-24T14:51:00;6.38;;;1.92;;
51981;SDS011;37998;53.416;6.730;2022-09-24T14:53:33;6.75;;;1.83;;
51981;SDS011;37998;53.416;6.730;2022-09-24T14:56:05;4.85;;;1.80;;
51981;SDS011;37998;53.416;6.730;2022-09-24T14:58:44;8.70;;;1.88;;
51981;SDS011;37998;53.416;6.730;2022-09-24T15:01:14;8.73;;;2.00;;
51981;SDS011;37998;53.416;6.730;2022-09-24T15:03:49;8.38;;;2.13;;
51981;SDS011;37998;53.416;6.730;2022-09-24T15:06:26;5.65;;;2.08;;
51981;SDS011;37998;53.416;6.730;2022-09-24T15:08:58;8.70;;;2.45;;
51981;SDS011;37998;53.416;6.730;2022-09-24T15:11:39;10.13;;;2.47;;
51981;SDS011;37998;53.416;6.730;2022-09-24T15:14:18;14.50;;;3.08;;
51981;SDS011;37998;53.416;6.730;2022-09-24T15:16:54;13.80;;;2.50;;
51981;SDS011;37998;53.416;6.730;2022-09-24T15:19:31;9.50;;;2.35;;
51981;SDS011;37998;53.416;6.730;2022-09-24T15:22:00;7.63;;;1.98;;
51981;SDS011;37998;53.416;6.730;2022-09-24T15:24:26;8.60;;;1.88;;
51981;SDS011;37998;53.416;6.730;2022-09-24T15:27:01;12.80;;;2.13;;
51981;SDS011;37998;53.416;6.730;2022-09-24T15:29:30;8.10;;;2.15;;
51981;SDS011;37998;53.416;6.730;2022-09-24T15:31:56;9.77;;;2.13;;
51981;SDS011;37998;53.416;6.730;2022-09-24T15:34:23;9.55;;;2.33;;
51981;SDS011;37998;53.416;6.730;2022-09-24T15:36:51;11.23;;;2.63;;
51981;SDS011;37998;53.416;6.730;2022-09-24T15:39:19;8.98;;;2.05;;
51981;SDS011;37998;53.416;6.730;2022-09-24T15:41:45;10.07;;;2.65;;
51981;SDS011;37998;53.416;6.730;2022-09-24T15:44:18;20.80;;;3.78;;
51981;SDS011;37998;53.416;6.730;2022-09-24T15:46:47;12.95;;;2.88;;
51981;SDS011;37998;53.416;6.730;2022-09-24T15:49:15;11.70;;;2.38;;
51981;SDS011;37998;53.416;6.730;2022-09-24T15:51:46;9.82;;;2.90;;
51981;SDS011;37998;53.416;6.730;2022-09-24T15:54:13;11.35;;;2.75;;
51981;SDS011;37998;53.416;6.730;2022-09-24T15:56:39;13.43;;;2.78;;
51981;SDS011;37998;53.416;6.730;2022-09-24T15:59:13;11.13;;;2.80;;
51981;SDS011;37998;53.416;6.730;2022-09-24T16:01:39;12.35;;;2.38;;
51981;SDS011;37998;53.416;6.730;2022-09-24T16:04:05;12.15;;;2.50;;
51981;SDS011;37998;53.416;6.730;2022-09-24T16:06:32;8.07;;;2.10;;
51981;SDS011;37998;53.416;6.730;2022-09-24T16:08:58;8.55;;;2.08;;
51981;SDS011;37998;53.416;6.730;2022-09-24T16:11:23;5.78;;;2.05;;
51981;SDS011;37998;53.416;6.730;2022-09-24T16:13:51;8.18;;;2.45;;
51981;SDS011;37998;53.416;6.730;2022-09-24T16:16:17;7.78;;;1.77;;
51981;SDS011;37998;53.416;6.730;2022-09-24T16:18:42;7.10;;;1.88;;
51981;SDS011;37998;53.416;6.730;2022-09-24T16:21:08;8.40;;;1.70;;
51981;SDS011;37998;53.416;6.730;2022-09-24T16:23:34;10.77;;;1.92;;
51981;SDS011;37998;53.416;6.730;2022-09-24T16:25:59;8.77;;;1.58;;
51981;SDS011;37998;53.416;6.730;2022-09-24T16:28:25;10.32;;;1.98;;
51981;SDS011;37998;53.416;6.730;2022-09-24T16:30:52;11.15;;;2.15;;
51981;SDS011;37998;53.416;6.730;2022-09-24T16:33:18;6.80;;;1.42;;
51981;SDS011;37998;53.416;6.730;2022-09-24T16:35:44;9.90;;;1.77;;
51981;SDS011;37998;53.416;6.730;2022-09-24T16:38:09;7.85;;;1.80;;
51981;SDS011;37998;53.416;6.730;2022-09-24T16:40:35;10.60;;;1.63;;
51981;SDS011;37998;53.416;6.730;2022-09-24T16:43:01;8.57;;;1.67;;
51981;SDS011;37998;53.416;6.730;2022-09-24T16:45:27;6.65;;;1.67;;
51981;SDS011;37998;53.416;6.730;2022-09-24T16:47:53;6.82;;;1.50;;
51981;SDS011;37998;53.416;6.730;2022-09-24T16:50:18;6.72;;;1.55;;
51981;SDS011;37998;53.416;6.730;2022-09-24T16:52:47;9.43;;;1.98;;
51981;SDS011;37998;53.416;6.730;2022-09-24T16:55:14;7.45;;;1.40;;
51981;SDS011;37998;53.416;6.730;2022-09-24T16:57:40;4.97;;;1.52;;
51981;SDS011;37998;53.416;6.730;2022-09-24T17:00:06;6.38;;;1.33;;
51981;SDS011;37998;53.416;6.730;2022-09-24T17:02:33;6.55;;;1.50;;
51981;SDS011;37998;53.416;6.730;2022-09-24T17:04:59;8.02;;;1.70;;